Time;durP1;ratioP1;P1;durP2;ratioP2;P2;SDS_P1;SDS_P2;PMS_P1;PMS_P2;Temp;Humidity;BMP_temperature;BMP_pressure;BME280_temperature;BME280_humidity;BME280_pressure;Samples;Min_cycle;Max_cycle;Signal;HPM_P1;HPM_P2
2021/11/23 00:00:00;;;;;;;;;;;;;;;;;;1028447;28;969;-35
2021/11/23 00:00:31;;;;;;;;;;;;;;;;;;1017723;28;1798;-32
2021/11/23 00:01:02;;;;;;;;;;;;;;;;;;1024877;28;991;-32
2021/11/23 00:01:33;;;;;;;;;;;;;;;;;;1021625;28;900;-33
2021/11/23 00:02:04;;;;;;;;;;;;;;;;;;1021124;28;1645;-34
2021/11/23 00:02:35;;;;;;;;;;;;;;;;;;1032636;28;1612;-34
2021/11/23 00:03:07;;;;;;;;;;;;;;;;;;1033191;28;954;-35
2021/11/23 00:03:37;;;;;;;;;;;;;;;;;;1037650;28;1024;-37
2021/11/23 00:04:08;;;;;;;;;;;;;;;;;;1049620;28;921;-37
2021/11/23 00:04:38;;;;;;;;;;;;;;;;;;1054099;28;919;-37
2021/11/23 00:05:10;;;;;;;;;;;;;;;;;;1044944;28;882;-34
2021/11/23 00:05:42;;;;;;;;;;;;;;;;;;1045273;28;1034;-36
2021/11/23 00:06:13;;;;;;;;;;;;;;;;;;1044803;28;918;-32
2021/11/23 00:06:44;;;;;;;;;;;;;;;;;;1046136;28;1035;-34
2021/11/23 00:07:14;;;;;;;;;;;;;;;;;;1052949;28;1445;-35
2021/11/23 00:07:45;;;;;;;;;;;;;;;;;;1044775;28;1119;-32
2021/11/23 00:08:17;;;;;;;;;;;;;;;;;;1044520;28;1418;-36
2021/11/23 00:08:47;;;;;;;;;;;;;;;;;;1044767;28;1922;-31
2021/11/23 00:09:18;;;;;;;;;;;;;;;;;;1045359;28;865;-34
2021/11/23 00:09:48;;;;;;;;;;;;;;;;;;1053925;28;1095;-30
2021/11/23 00:10:19;;;;;;;;;;;;;;;;;;1054005;28;814;-36
2021/11/23 00:10:50;;;;;;;;;;;;;;;;;;1053982;28;917;-36
2021/11/23 00:11:20;;;;;;;;;;;;;;;;;;1040595;28;989;-33
2021/11/23 00:11:50;;;;;;;;;;;;;;;;;;1040774;28;1009;-34
2021/11/23 00:12:22;;;;;;;;;;;;;;;;;;1040453;28;1422;-34
2021/11/23 00:12:53;;;;;;;;;;;;;;;;;;1041227;28;1320;-36
2021/11/23 00:13:24;;;;;;;;;;;;;;;;;;1054127;28;899;-33
2021/11/23 00:13:55;;;;;;;;;;;;;;;;;;1053783;28;1475;-35
2021/11/23 00:14:25;;;;;;;;;;;;;;;;;;1054004;28;1059;-35
2021/11/23 00:14:56;;;;;;;;;;;;;;;;;;1053960;28;1131;-32
2021/11/23 00:15:27;;;;;;;;;;;;;;;;;;1049172;28;1097;-36
2021/11/23 00:15:57;;;;;;;;;;;;;;;;;;1049101;28;972;-34
2021/11/23 00:16:28;;;;;;;;;;;;;;;;;;1049035;28;991;-30
2021/11/23 00:16:58;;;;;;;;;;;;;;;;;;1048831;28;838;-33
2021/11/23 00:17:29;;;;;;;;;;;;;;;;;;1053923;28;1558;-33
2021/11/23 00:18:02;;;;;;;;;;;;;;;;;;1049030;28;1093;-36
2021/11/23 00:18:33;;;;;;;;;;;;;;;;;;1049088;28;955;-36
2021/11/23 00:19:03;;;;;;;;;;;;;;;;;;1049261;28;1026;-35
2021/11/23 00:19:34;;;;;;;;;;;;;;;;;;1049453;28;1568;-35
2021/11/23 00:20:05;;;;;;;;;;;;;;;;;;1053991;28;1713;-35
2021/11/23 00:20:37;;;;;;;;;;;;;;;;;;1053921;28;1208;-35
2021/11/23 00:21:08;;;;;;;;;;;;;;;;;;1054152;28;1241;-35
2021/11/23 00:21:39;;;;;;;;;;;;;;;;;;1053617;28;1639;-34
2021/11/23 00:22:09;;;;;;;;;;;;;;;;;;1053712;28;1067;-33
2021/11/23 00:22:40;;;;;;;;;;;;;;;;;;1053690;28;1321;-31
2021/11/23 00:23:11;;;;;;;;;;;;;;;;;;1053727;28;1211;-35
2021/11/23 00:23:41;;;;;;;;;;;;;;;;;;1054136;28;849;-32
2021/11/23 00:24:12;;;;;;;;;;;;;;;;;;1053924;28;877;-35
2021/11/23 00:24:42;;;;;;;;;;;;;;;;;;1053995;28;951;-34
2021/11/23 00:25:13;;;;;;;;;;;;;;;;;;1054004;28;877;-34
2021/11/23 00:25:45;;;;;;;;;;;;;;;;;;1054154;28;940;-36
2021/11/23 00:26:15;;;;;;;;;;;;;;;;;;1040721;28;1085;-35
2021/11/23 00:26:46;;;;;;;;;;;;;;;;;;1040672;28;1233;-35
2021/11/23 00:27:17;;;;;;;;;;;;;;;;;;1040609;28;1086;-34
2021/11/23 00:27:47;;;;;;;;;;;;;;;;;;1032761;28;1007;-35
2021/11/23 00:28:18;;;;;;;;;;;;;;;;;;1040554;28;1008;-35
2021/11/23 00:28:49;;;;;;;;;;;;;;;;;;1040718;28;1975;-35
2021/11/23 00:29:19;;;;;;;;;;;;;;;;;;1036961;28;939;-32
2021/11/23 00:29:51;;;;;;;;;;;;;;;;;;1044974;28;1329;-34
2021/11/23 00:30:24;;;;;;;;;;;;;;;;;;1044992;28;870;-41
2021/11/23 00:30:54;;;;;;;;;;;;;;;;;;1045839;28;1505;-36
2021/11/23 00:31:25;;;;;;;;;;;;;;;;;;1053829;28;1016;-33
2021/11/23 00:31:55;;;;;;;;;;;;;;;;;;1040407;28;1076;-36
2021/11/23 00:32:26;;;;;;;;;;;;;;;;;;1040706;28;956;-34
2021/11/23 00:32:57;;;;;;;;;;;;;;;;;;1040781;28;1199;-34
2021/11/23 00:33:40;;;;;;;;;;;;;;;;;;1041769;28;794;-34
2021/11/23 00:34:11;;;;;;;;;;;;;;;;;;1040550;28;1173;-34
2021/11/23 00:34:41;;;;;;;;;;;;;;;;;;1040874;28;877;-34
2021/11/23 00:35:11;;;;;;;;;;;;;;;;;;1040545;28;1079;-34
2021/11/23 00:35:43;;;;;;;;;;;;;;;;;;1045620;28;905;-35
2021/11/23 00:36:13;;;;;;;;;;;;;;;;;;1053959;28;912;-31
2021/11/23 00:36:44;;;;;;;;;;;;;;;;;;1053952;28;975;-36
2021/11/23 00:37:15;;;;;;;;;;;;;;;;;;1040540;28;1036;-34
2021/11/23 00:37:49;;;;;;;;;;;;;;;;;;1040689;28;1009;-35
2021/11/23 00:38:20;;;;;;;;;;;;;;;;;;1040872;28;925;-35
2021/11/23 00:38:50;;;;;;;;;;;;;;;;;;1042656;28;1061;-32
2021/11/23 00:39:21;;;;;;;;;;;;;;;;;;1053986;28;1390;-34
2021/11/23 00:39:51;;;;;;;;;;;;;;;;;;1054043;28;917;-34
2021/11/23 00:40:23;;;;;;;;;;;;;;;;;;1053282;28;1367;-35
2021/11/23 00:40:54;;;;;;;;;;;;;;;;;;1040437;28;1117;-37
2021/11/23 00:41:25;;;;;;;;;;;;;;;;;;1032421;28;995;-34
2021/11/23 00:41:55;;;;;;;;;;;;;;;;;;1028105;28;1011;-35
2021/11/23 00:42:26;;;;;;;;;;;;;;;;;;1029093;28;1034;-34
2021/11/23 00:43:03;;;;;;;;;;;;;;;;;;1040746;28;972;-36
2021/11/23 00:43:33;;;;;;;;;;;;;;;;;;1043704;28;985;-31
2021/11/23 00:44:04;;;;;;;;;;;;;;;;;;1053483;28;1349;-36
2021/11/23 00:44:34;;;;;;;;;;;;;;;;;;1053680;28;990;-30
2021/11/23 00:45:05;;;;;;;;;;;;;;;;;;1054248;28;944;-30
2021/11/23 00:45:37;;;;;;;;;;;;;;;;;;1053801;28;1145;-34
2021/11/23 00:46:08;;;;;;;;;;;;;;;;;;1040787;28;977;-36
2021/11/23 00:46:38;;;;;;;;;;;;;;;;;;1040734;28;1047;-34
2021/11/23 00:47:09;;;;;;;;;;;;;;;;;;1040561;28;866;-36
2021/11/23 00:47:39;;;;;;;;;;;;;;;;;;1041003;28;858;-36
2021/11/23 00:48:10;;;;;;;;;;;;;;;;;;1053676;28;1218;-32
2021/11/23 00:48:40;;;;;;;;;;;;;;;;;;1053929;28;1979;-34
2021/11/23 00:49:11;;;;;;;;;;;;;;;;;;1054044;28;1267;-37
2021/11/23 00:49:43;;;;;;;;;;;;;;;;;;1044951;28;1007;-35
2021/11/23 00:50:14;;;;;;;;;;;;;;;;;;1044770;28;990;-34
2021/11/23 00:50:49;;;;;;;;;;;;;;;;;;1045000;28;987;-36
2021/11/23 00:51:20;;;;;;;;;;;;;;;;;;1045472;28;995;-33
2021/11/23 00:51:51;;;;;;;;;;;;;;;;;;1045645;28;873;-34
2021/11/23 00:52:21;;;;;;;;;;;;;;;;;;1041180;28;1373;-32
2021/11/23 00:52:54;;;;;;;;;;;;;;;;;;1045532;28;1038;-33
2021/11/23 00:53:25;;;;;;;;;;;;;;;;;;1040967;28;1269;-32
2021/11/23 00:53:55;;;;;;;;;;;;;;;;;;1042144;28;1071;-36
2021/11/23 00:54:26;;;;;;;;;;;;;;;;;;1049743;28;917;-31
2021/11/23 00:54:56;;;;;;;;;;;;;;;;;;1049970;28;1092;-35
2021/11/23 00:55:28;;;;;;;;;;;;;;;;;;1055061;28;994;-34
2021/11/23 00:56:00;;;;;;;;;;;;;;;;;;1049605;28;1065;-33
2021/11/23 00:56:31;;;;;;;;;;;;;;;;;;1037314;28;1303;-34
2021/11/23 00:57:02;;;;;;;;;;;;;;;;;;1037217;28;1604;-34
2021/11/23 00:57:32;;;;;;;;;;;;;;;;;;1037268;28;952;-37
2021/11/23 00:58:03;;;;;;;;;;;;;;;;;;1037701;28;957;-33
2021/11/23 00:58:33;;;;;;;;;;;;;;;;;;1054376;28;1504;-34
2021/11/23 00:59:05;;;;;;;;;;;;;;;;;;1045522;28;1177;-34
2021/11/23 00:59:38;;;;;;;;;;;;;;;;;;1045657;28;1045;-32
2021/11/23 01:00:12;;;;;;;;;;;;;;;;;;1045594;28;1149;-33
2021/11/23 01:00:43;;;;;;;;;;;;;;;;;;1047977;28;939;-36
2021/11/23 01:01:14;;;;;;;;;;;;;;;;;;1032929;28;953;-32
2021/11/23 01:01:45;;;;;;;;;;;;;;;;;;1033431;28;945;-33
2021/11/23 01:02:15;;;;;;;;;;;;;;;;;;1033064;28;969;-36
2021/11/23 01:02:46;;;;;;;;;;;;;;;;;;1033383;28;807;-31
2021/11/23 01:03:17;;;;;;;;;;;;;;;;;;1054895;28;1045;-34
2021/11/23 01:03:47;;;;;;;;;;;;;;;;;;1054457;28;1321;-33
2021/11/23 01:04:18;;;;;;;;;;;;;;;;;;1054405;28;950;-36
2021/11/23 01:04:49;;;;;;;;;;;;;;;;;;1041411;28;1042;-33
2021/11/23 01:05:20;;;;;;;;;;;;;;;;;;1041422;28;1204;-35
2021/11/23 01:05:50;;;;;;;;;;;;;;;;;;1033408;28;1044;-31
2021/11/23 01:06:21;;;;;;;;;;;;;;;;;;1033779;28;1056;-36
2021/11/23 01:06:51;;;;;;;;;;;;;;;;;;1045110;28;1447;-35
2021/11/23 01:07:22;;;;;;;;;;;;;;;;;;1045689;28;1173;-36
2021/11/23 01:07:52;;;;;;;;;;;;;;;;;;1054702;28;1167;-33
2021/11/23 01:08:23;;;;;;;;;;;;;;;;;;1054408;28;1206;-35
2021/11/23 01:08:54;;;;;;;;;;;;;;;;;;1054807;28;1930;-33
2021/11/23 01:09:24;;;;;;;;;;;;;;;;;;1053967;28;1391;-35
2021/11/23 01:09:55;;;;;;;;;;;;;;;;;;1054836;28;954;-34
2021/11/23 01:10:26;;;;;;;;;;;;;;;;;;1054734;28;1203;-34
2021/11/23 01:10:57;;;;;;;;;;;;;;;;;;1045348;28;1343;-34
2021/11/23 01:11:27;;;;;;;;;;;;;;;;;;1045473;28;1061;-33
2021/11/23 01:11:58;;;;;;;;;;;;;;;;;;1041086;28;964;-35
2021/11/23 01:12:29;;;;;;;;;;;;;;;;;;1041366;28;964;-36
2021/11/23 01:13:00;;;;;;;;;;;;;;;;;;1045774;28;864;-34
2021/11/23 01:13:30;;;;;;;;;;;;;;;;;;1036915;28;1272;-33
2021/11/23 01:14:01;;;;;;;;;;;;;;;;;;1045689;28;1136;-35
2021/11/23 01:14:31;;;;;;;;;;;;;;;;;;1045181;28;1259;-35
2021/11/23 01:15:03;;;;;;;;;;;;;;;;;;1045751;28;968;-34
2021/11/23 01:15:33;;;;;;;;;;;;;;;;;;1054665;28;840;-36
2021/11/23 01:16:05;;;;;;;;;;;;;;;;;;1045621;28;881;-35
2021/11/23 01:16:36;;;;;;;;;;;;;;;;;;1045481;28;918;-32
2021/11/23 01:17:07;;;;;;;;;;;;;;;;;;1045381;28;1021;-34
2021/11/23 01:17:37;;;;;;;;;;;;;;;;;;1045739;28;924;-36
2021/11/23 01:18:08;;;;;;;;;;;;;;;;;;1055134;28;1372;-33
2021/11/23 01:18:38;;;;;;;;;;;;;;;;;;1054369;28;967;-30
2021/11/23 01:19:09;;;;;;;;;;;;;;;;;;1054842;28;1034;-33
2021/11/23 01:19:39;;;;;;;;;;;;;;;;;;1054355;28;1205;-36
2021/11/23 01:20:11;;;;;;;;;;;;;;;;;;1045236;28;1217;-36
2021/11/23 01:20:41;;;;;;;;;;;;;;;;;;1045790;28;1118;-35
2021/11/23 01:21:13;;;;;;;;;;;;;;;;;;1045272;28;1182;-38
2021/11/23 01:21:44;;;;;;;;;;;;;;;;;;1045953;28;1054;-39
2021/11/23 01:22:14;;;;;;;;;;;;;;;;;;1054405;28;1108;-34
2021/11/23 01:22:45;;;;;;;;;;;;;;;;;;1054740;28;908;-34
2021/11/23 01:23:16;;;;;;;;;;;;;;;;;;1041416;28;965;-38
2021/11/23 01:23:47;;;;;;;;;;;;;;;;;;1041193;28;1359;-38
2021/11/23 01:24:17;;;;;;;;;;;;;;;;;;1041278;28;1002;-38
2021/11/23 01:24:48;;;;;;;;;;;;;;;;;;1041586;28;1266;-37
2021/11/23 01:25:19;;;;;;;;;;;;;;;;;;1050407;28;1017;-37
2021/11/23 01:25:49;;;;;;;;;;;;;;;;;;1050585;28;941;-36
2021/11/23 01:26:20;;;;;;;;;;;;;;;;;;1050261;28;1329;-35
2021/11/23 01:26:51;;;;;;;;;;;;;;;;;;1041218;28;1321;-36
2021/11/23 01:27:21;;;;;;;;;;;;;;;;;;1041185;28;943;-35
2021/11/23 01:27:52;;;;;;;;;;;;;;;;;;1041170;28;1023;-37
2021/11/23 01:28:23;;;;;;;;;;;;;;;;;;1037467;28;959;-37
2021/11/23 01:28:54;;;;;;;;;;;;;;;;;;1045440;28;1906;-37
2021/11/23 01:29:24;;;;;;;;;;;;;;;;;;1045258;28;1059;-37
2021/11/23 01:29:55;;;;;;;;;;;;;;;;;;1045461;28;1421;-34
2021/11/23 01:30:26;;;;;;;;;;;;;;;;;;1050391;28;1062;-34
2021/11/23 01:30:57;;;;;;;;;;;;;;;;;;1050593;28;786;-35
2021/11/23 01:31:27;;;;;;;;;;;;;;;;;;1050449;28;938;-29
2021/11/23 01:31:57;;;;;;;;;;;;;;;;;;1050263;28;896;-33
2021/11/23 01:32:28;;;;;;;;;;;;;;;;;;1050207;28;841;-32
2021/11/23 01:32:59;;;;;;;;;;;;;;;;;;1045716;28;991;-35
2021/11/23 01:33:32;;;;;;;;;;;;;;;;;;1032916;28;1012;-36
2021/11/23 01:34:03;;;;;;;;;;;;;;;;;;1025180;28;942;-33
2021/11/23 01:34:34;;;;;;;;;;;;;;;;;;1025167;28;1084;-31
2021/11/23 01:35:05;;;;;;;;;;;;;;;;;;1029778;28;1218;-33
2021/11/23 01:35:36;;;;;;;;;;;;;;;;;;1038347;28;925;-34
2021/11/23 01:36:06;;;;;;;;;;;;;;;;;;1050333;28;861;-35
2021/11/23 01:36:37;;;;;;;;;;;;;;;;;;1045512;28;1031;-30
2021/11/23 01:37:08;;;;;;;;;;;;;;;;;;1045470;28;1097;-36
2021/11/23 01:37:39;;;;;;;;;;;;;;;;;;1045154;28;853;-35
2021/11/23 01:38:10;;;;;;;;;;;;;;;;;;1045743;28;1079;-33
2021/11/23 01:38:41;;;;;;;;;;;;;;;;;;1050177;28;958;-31
2021/11/23 01:39:11;;;;;;;;;;;;;;;;;;1050504;28;951;-34
2021/11/23 01:39:42;;;;;;;;;;;;;;;;;;1050475;28;1011;-31
2021/11/23 01:40:13;;;;;;;;;;;;;;;;;;1050394;28;834;-33
2021/11/23 01:40:45;;;;;;;;;;;;;;;;;;1050503;28;964;-29
2021/11/23 01:41:16;;;;;;;;;;;;;;;;;;1032439;28;1160;-35
2021/11/23 01:41:47;;;;;;;;;;;;;;;;;;1024800;28;1156;-33
2021/11/23 01:42:18;;;;;;;;;;;;;;;;;;1024795;28;1153;-34
2021/11/23 01:42:49;;;;;;;;;;;;;;;;;;1025425;28;1146;-34
2021/11/23 01:43:20;;;;;;;;;;;;;;;;;;1038194;28;905;-36
2021/11/23 01:43:50;;;;;;;;;;;;;;;;;;1050077;28;1011;-33
2021/11/23 01:44:21;;;;;;;;;;;;;;;;;;1050591;28;802;-34
2021/11/23 01:44:52;;;;;;;;;;;;;;;;;;1050129;28;1046;-34
2021/11/23 01:45:22;;;;;;;;;;;;;;;;;;1050512;28;879;-33
2021/11/23 01:45:53;;;;;;;;;;;;;;;;;;1041380;28;1063;-31
2021/11/23 01:46:23;;;;;;;;;;;;;;;;;;1041400;28;905;-31
2021/11/23 01:46:54;;;;;;;;;;;;;;;;;;1041260;28;979;-33
2021/11/23 01:47:25;;;;;;;;;;;;;;;;;;1041276;28;1323;-34
2021/11/23 01:47:55;;;;;;;;;;;;;;;;;;1050149;28;1038;-31
2021/11/23 01:48:26;;;;;;;;;;;;;;;;;;1050433;28;1014;-33
2021/11/23 01:48:57;;;;;;;;;;;;;;;;;;1045081;28;1914;-34
2021/11/23 01:49:27;;;;;;;;;;;;;;;;;;1045455;28;1404;-36
2021/11/23 01:49:58;;;;;;;;;;;;;;;;;;1045446;28;1030;-35
2021/11/23 01:50:28;;;;;;;;;;;;;;;;;;1045571;28;1167;-34
2021/11/23 01:50:59;;;;;;;;;;;;;;;;;;1050389;28;908;-34
2021/11/23 01:51:29;;;;;;;;;;;;;;;;;;1050429;28;920;-32
2021/11/23 01:52:00;;;;;;;;;;;;;;;;;;1050301;28;794;-36
2021/11/23 01:52:30;;;;;;;;;;;;;;;;;;1050264;28;1116;-35
2021/11/23 01:53:04;;;;;;;;;;;;;;;;;;1049865;28;1324;-34
2021/11/23 01:53:34;;;;;;;;;;;;;;;;;;1050218;28;974;-34
2021/11/23 01:54:05;;;;;;;;;;;;;;;;;;1050393;28;1410;-33
2021/11/23 01:54:36;;;;;;;;;;;;;;;;;;1050145;28;1017;-33
2021/11/23 01:55:09;;;;;;;;;;;;;;;;;;1045687;28;1164;-34
2021/11/23 01:55:40;;;;;;;;;;;;;;;;;;1045187;28;1487;-35
2021/11/23 01:56:11;;;;;;;;;;;;;;;;;;1045315;28;1588;-37
2021/11/23 01:56:42;;;;;;;;;;;;;;;;;;1045540;28;1001;-36
2021/11/23 01:57:12;;;;;;;;;;;;;;;;;;1045491;28;967;-37
2021/11/23 01:57:43;;;;;;;;;;;;;;;;;;1045568;28;846;-35
2021/11/23 01:58:14;;;;;;;;;;;;;;;;;;1046025;28;977;-36
2021/11/23 01:58:45;;;;;;;;;;;;;;;;;;1045205;28;964;-35
2021/11/23 01:59:15;;;;;;;;;;;;;;;;;;1045514;28;930;-36
2021/11/23 01:59:49;;;;;;;;;;;;;;;;;;1045188;28;1553;-36
2021/11/23 02:00:20;;;;;;;;;;;;;;;;;;1045998;28;1296;-36
2021/11/23 02:00:50;;;;;;;;;;;;;;;;;;1050283;28;1405;-39
2021/11/23 02:01:21;;;;;;;;;;;;;;;;;;1050272;28;1038;-36
2021/11/23 02:01:52;;;;;;;;;;;;;;;;;;1045587;28;1196;-36
2021/11/23 02:02:22;;;;;;;;;;;;;;;;;;1045280;28;1557;-40
2021/11/23 02:02:53;;;;;;;;;;;;;;;;;;1045561;28;1201;-35
2021/11/23 02:03:23;;;;;;;;;;;;;;;;;;1045364;28;1284;-37
2021/11/23 02:03:54;;;;;;;;;;;;;;;;;;1050298;28;1058;-39
2021/11/23 02:04:25;;;;;;;;;;;;;;;;;;1045315;28;1276;-38
2021/11/23 02:04:55;;;;;;;;;;;;;;;;;;1045554;28;1264;-38
2021/11/23 02:05:26;;;;;;;;;;;;;;;;;;1045315;28;944;-33
2021/11/23 02:05:57;;;;;;;;;;;;;;;;;;1045449;28;1168;-32
2021/11/23 02:06:28;;;;;;;;;;;;;;;;;;1041100;28;1072;-38
2021/11/23 02:06:58;;;;;;;;;;;;;;;;;;1041432;28;921;-37
2021/11/23 02:07:28;;;;;;;;;;;;;;;;;;1041208;28;909;-39
2021/11/23 02:07:59;;;;;;;;;;;;;;;;;;1041004;28;989;-38
2021/11/23 02:08:30;;;;;;;;;;;;;;;;;;1050098;28;1991;-33
2021/11/23 02:09:01;;;;;;;;;;;;;;;;;;1047171;28;1357;-35
2021/11/23 02:09:32;;;;;;;;;;;;;;;;;;1049803;28;1057;-35
2021/11/23 02:10:03;;;;;;;;;;;;;;;;;;1049125;28;1996;-39
2021/11/23 02:10:34;;;;;;;;;;;;;;;;;;1049645;28;1199;-37
2021/11/23 02:11:05;;;;;;;;;;;;;;;;;;1036994;28;1030;-38
2021/11/23 02:11:36;;;;;;;;;;;;;;;;;;1036894;28;1175;-36
2021/11/23 02:12:06;;;;;;;;;;;;;;;;;;1036946;28;1046;-38
2021/11/23 02:12:38;;;;;;;;;;;;;;;;;;1028890;28;1396;-37
2021/11/23 02:13:08;;;;;;;;;;;;;;;;;;1036930;28;1128;-36
2021/11/23 02:13:39;;;;;;;;;;;;;;;;;;1037174;28;1086;-36
2021/11/23 02:14:10;;;;;;;;;;;;;;;;;;1033183;28;1096;-36
2021/11/23 02:14:40;;;;;;;;;;;;;;;;;;1041364;28;886;-35
2021/11/23 02:15:11;;;;;;;;;;;;;;;;;;1041271;28;917;-35
2021/11/23 02:15:42;;;;;;;;;;;;;;;;;;1041273;28;1030;-37
2021/11/23 02:16:12;;;;;;;;;;;;;;;;;;1050033;28;1037;-39
2021/11/23 02:16:43;;;;;;;;;;;;;;;;;;1045442;28;1080;-34
2021/11/23 02:17:14;;;;;;;;;;;;;;;;;;1041081;28;1012;-37
2021/11/23 02:17:47;;;;;;;;;;;;;;;;;;1041086;28;1203;-35
2021/11/23 02:18:18;;;;;;;;;;;;;;;;;;1041404;28;926;-35
2021/11/23 02:18:49;;;;;;;;;;;;;;;;;;1045916;28;924;-38
2021/11/23 02:19:19;;;;;;;;;;;;;;;;;;1049792;28;1336;-32
2021/11/23 02:19:52;;;;;;;;;;;;;;;;;;1045204;28;1080;-34
2021/11/23 02:20:23;;;;;;;;;;;;;;;;;;1045128;28;1035;-36
2021/11/23 02:20:55;;;;;;;;;;;;;;;;;;1041046;28;1093;-35
2021/11/23 02:21:25;;;;;;;;;;;;;;;;;;1041281;28;1126;-38
2021/11/23 02:21:56;;;;;;;;;;;;;;;;;;1041195;28;889;-36
2021/11/23 02:22:26;;;;;;;;;;;;;;;;;;1041598;28;1075;-37
2021/11/23 02:22:57;;;;;;;;;;;;;;;;;;1049984;28;853;-37
2021/11/23 02:23:28;;;;;;;;;;;;;;;;;;1050958;28;1393;-34
2021/11/23 02:23:58;;;;;;;;;;;;;;;;;;1054648;28;937;-38
2021/11/23 02:24:29;;;;;;;;;;;;;;;;;;1054473;28;1231;-35
2021/11/23 02:25:00;;;;;;;;;;;;;;;;;;1041091;28;1148;-38
2021/11/23 02:25:30;;;;;;;;;;;;;;;;;;1041431;28;874;-35
2021/11/23 02:26:01;;;;;;;;;;;;;;;;;;1041302;28;1027;-38
2021/11/23 02:26:32;;;;;;;;;;;;;;;;;;1037576;28;899;-35
2021/11/23 02:27:02;;;;;;;;;;;;;;;;;;1049898;28;1289;-37
2021/11/23 02:27:33;;;;;;;;;;;;;;;;;;1049919;28;810;-38
2021/11/23 02:28:08;;;;;;;;;;;;;;;;;;1045764;28;954;-33
2021/11/23 02:28:38;;;;;;;;;;;;;;;;;;1041150;28;1991;-37
2021/11/23 02:29:09;;;;;;;;;;;;;;;;;;1041300;28;964;-36
2021/11/23 02:29:39;;;;;;;;;;;;;;;;;;1042083;28;1064;-37
2021/11/23 02:30:10;;;;;;;;;;;;;;;;;;1046157;28;1289;-34
2021/11/23 02:30:44;;;;;;;;;;;;;;;;;;1054385;28;1016;-39
2021/11/23 02:31:14;;;;;;;;;;;;;;;;;;1054313;28;1422;-37
2021/11/23 02:31:45;;;;;;;;;;;;;;;;;;1054229;28;758;-36
2021/11/23 02:32:16;;;;;;;;;;;;;;;;;;1037000;28;959;-35
2021/11/23 02:32:52;;;;;;;;;;;;;;;;;;1036610;28;1084;-37
2021/11/23 02:33:23;;;;;;;;;;;;;;;;;;1037205;28;999;-36
2021/11/23 02:33:54;;;;;;;;;;;;;;;;;;1040844;28;944;-36
2021/11/23 02:34:26;;;;;;;;;;;;;;;;;;1054445;28;810;-37
2021/11/23 02:34:57;;;;;;;;;;;;;;;;;;1041208;28;1058;-35
2021/11/23 02:35:27;;;;;;;;;;;;;;;;;;1040727;28;1380;-35
2021/11/23 02:36:00;;;;;;;;;;;;;;;;;;1041122;28;1165;-36
2021/11/23 02:36:33;;;;;;;;;;;;;;;;;;1038688;28;1729;-36
2021/11/23 02:37:04;;;;;;;;;;;;;;;;;;1045014;28;1032;-36
2021/11/23 02:37:42;;;;;;;;;;;;;;;;;;1045460;28;880;-35
2021/11/23 02:38:13;;;;;;;;;;;;;;;;;;1045393;28;883;-36
2021/11/23 02:38:43;;;;;;;;;;;;;;;;;;1047484;28;920;-34
2021/11/23 02:39:14;;;;;;;;;;;;;;;;;;1054327;28;1388;-36
2021/11/23 02:39:44;;;;;;;;;;;;;;;;;;1054084;28;1027;-38
2021/11/23 02:40:15;;;;;;;;;;;;;;;;;;1054430;28;997;-38
2021/11/23 02:40:47;;;;;;;;;;;;;;;;;;1054350;28;1533;-36
2021/11/23 02:41:18;;;;;;;;;;;;;;;;;;1040973;28;1043;-37
2021/11/23 02:41:49;;;;;;;;;;;;;;;;;;1032264;28;1354;-37
2021/11/23 02:42:19;;;;;;;;;;;;;;;;;;1032732;28;1226;-35
2021/11/23 02:42:50;;;;;;;;;;;;;;;;;;1033127;28;1029;-37
2021/11/23 02:43:21;;;;;;;;;;;;;;;;;;1040823;28;1343;-38
2021/11/23 02:43:51;;;;;;;;;;;;;;;;;;1054417;28;1185;-36
2021/11/23 02:44:22;;;;;;;;;;;;;;;;;;1054209;28;1009;-36
2021/11/23 02:44:53;;;;;;;;;;;;;;;;;;1054381;28;1003;-36
2021/11/23 02:45:26;;;;;;;;;;;;;;;;;;1041067;28;1069;-35
2021/11/23 02:45:57;;;;;;;;;;;;;;;;;;1036893;28;982;-38
2021/11/23 02:46:27;;;;;;;;;;;;;;;;;;1036984;28;944;-38
2021/11/23 02:47:01;;;;;;;;;;;;;;;;;;1038440;28;1208;-34
2021/11/23 02:47:36;;;;;;;;;;;;;;;;;;1050109;28;861;-36
2021/11/23 02:48:08;;;;;;;;;;;;;;;;;;1054210;28;908;-36
2021/11/23 02:48:38;;;;;;;;;;;;;;;;;;1054487;28;1913;-36
2021/11/23 02:49:09;;;;;;;;;;;;;;;;;;1054189;28;922;-39
2021/11/23 02:49:39;;;;;;;;;;;;;;;;;;1054524;28;944;-35
2021/11/23 02:50:12;;;;;;;;;;;;;;;;;;1054176;28;837;-35
2021/11/23 02:50:47;;;;;;;;;;;;;;;;;;1045342;28;940;-37
2021/11/23 02:51:17;;;;;;;;;;;;;;;;;;1045099;28;1090;-34
2021/11/23 02:51:49;;;;;;;;;;;;;;;;;;1044980;28;928;-38
2021/11/23 02:52:19;;;;;;;;;;;;;;;;;;1047265;28;976;-36
2021/11/23 02:52:51;;;;;;;;;;;;;;;;;;1054004;28;778;-35
2021/11/23 02:53:23;;;;;;;;;;;;;;;;;;1054511;28;901;-38
2021/11/23 02:53:55;;;;;;;;;;;;;;;;;;1054295;28;916;-36
2021/11/23 02:54:26;;;;;;;;;;;;;;;;;;1054207;28;805;-37
2021/11/23 02:54:57;;;;;;;;;;;;;;;;;;1041181;28;1010;-37
2021/11/23 02:55:31;;;;;;;;;;;;;;;;;;1041052;28;1004;-37
2021/11/23 02:56:04;;;;;;;;;;;;;;;;;;1040904;28;886;-35
2021/11/23 02:56:35;;;;;;;;;;;;;;;;;;1044193;28;1007;-38
2021/11/23 02:57:05;;;;;;;;;;;;;;;;;;1040333;28;1359;-36
2021/11/23 02:57:37;;;;;;;;;;;;;;;;;;1033098;28;1252;-32
2021/11/23 02:58:10;;;;;;;;;;;;;;;;;;1024420;28;996;-33
2021/11/23 02:58:43;;;;;;;;;;;;;;;;;;1026337;28;1183;-35
2021/11/23 02:59:13;;;;;;;;;;;;;;;;;;1037458;28;1409;-33
2021/11/23 02:59:44;;;;;;;;;;;;;;;;;;1042883;28;1007;-33
2021/11/23 03:00:17;;;;;;;;;;;;;;;;;;1054172;28;853;-36
2021/11/23 03:00:48;;;;;;;;;;;;;;;;;;1044765;28;1261;-31
2021/11/23 03:01:20;;;;;;;;;;;;;;;;;;1045134;28;1267;-34
2021/11/23 03:01:50;;;;;;;;;;;;;;;;;;1045010;28;1441;-34
2021/11/23 03:02:21;;;;;;;;;;;;;;;;;;1044863;28;1387;-34
2021/11/23 03:02:52;;;;;;;;;;;;;;;;;;1054210;28;1539;-30
2021/11/23 03:03:23;;;;;;;;;;;;;;;;;;1053507;28;1409;-35
2021/11/23 03:03:54;;;;;;;;;;;;;;;;;;1054500;28;1212;-36
2021/11/23 03:04:24;;;;;;;;;;;;;;;;;;1053807;28;1398;-35
2021/11/23 03:04:56;;;;;;;;;;;;;;;;;;1054457;28;1108;-35
2021/11/23 03:05:27;;;;;;;;;;;;;;;;;;1054102;28;1049;-37
2021/11/23 03:05:57;;;;;;;;;;;;;;;;;;1054042;28;1229;-35
2021/11/23 03:06:28;;;;;;;;;;;;;;;;;;1053979;28;1100;-37
2021/11/23 03:06:59;;;;;;;;;;;;;;;;;;1054368;28;1111;-35
2021/11/23 03:07:29;;;;;;;;;;;;;;;;;;1040399;28;1524;-36
2021/11/23 03:08:00;;;;;;;;;;;;;;;;;;1041134;28;1050;-37
2021/11/23 03:08:32;;;;;;;;;;;;;;;;;;1040472;28;1175;-37
2021/11/23 03:09:02;;;;;;;;;;;;;;;;;;1041651;28;1232;-37
2021/11/23 03:09:33;;;;;;;;;;;;;;;;;;1054188;28;869;-34
2021/11/23 03:10:05;;;;;;;;;;;;;;;;;;1053776;28;1458;-37
2021/11/23 03:10:36;;;;;;;;;;;;;;;;;;1054195;28;1258;-38
2021/11/23 03:11:06;;;;;;;;;;;;;;;;;;1053870;28;1391;-35
2021/11/23 03:11:37;;;;;;;;;;;;;;;;;;1054076;28;1056;-35
2021/11/23 03:12:12;;;;;;;;;;;;;;;;;;1054080;28;897;-36
2021/11/23 03:12:44;;;;;;;;;;;;;;;;;;1054018;28;969;-38
2021/11/23 03:13:15;;;;;;;;;;;;;;;;;;1053878;28;900;-36
2021/11/23 03:13:45;;;;;;;;;;;;;;;;;;1053518;28;1390;-36
2021/11/23 03:14:16;;;;;;;;;;;;;;;;;;1044758;28;1189;-36
2021/11/23 03:14:47;;;;;;;;;;;;;;;;;;1045246;28;928;-36
2021/11/23 03:15:18;;;;;;;;;;;;;;;;;;1044845;28;1032;-34
2021/11/23 03:15:49;;;;;;;;;;;;;;;;;;1045419;28;1008;-38
2021/11/23 03:16:20;;;;;;;;;;;;;;;;;;1049209;28;1043;-37
2021/11/23 03:16:50;;;;;;;;;;;;;;;;;;1049175;28;940;-34
2021/11/23 03:17:21;;;;;;;;;;;;;;;;;;1040804;28;1030;-37
2021/11/23 03:17:53;;;;;;;;;;;;;;;;;;1040670;28;1190;-38
2021/11/23 03:18:24;;;;;;;;;;;;;;;;;;1040598;28;961;-35
2021/11/23 03:18:55;;;;;;;;;;;;;;;;;;1041821;28;955;-35
2021/11/23 03:19:26;;;;;;;;;;;;;;;;;;1053253;28;882;-34
2021/11/23 03:19:56;;;;;;;;;;;;;;;;;;1053694;28;991;-37
2021/11/23 03:20:28;;;;;;;;;;;;;;;;;;1049071;28;889;-32
2021/11/23 03:20:59;;;;;;;;;;;;;;;;;;1049315;28;1068;-37
2021/11/23 03:21:29;;;;;;;;;;;;;;;;;;1049119;28;1106;-38
2021/11/23 03:22:02;;;;;;;;;;;;;;;;;;1049160;28;1482;-37
2021/11/23 03:22:32;;;;;;;;;;;;;;;;;;1054191;28;1435;-38
2021/11/23 03:23:04;;;;;;;;;;;;;;;;;;1053983;28;1055;-36
2021/11/23 03:23:34;;;;;;;;;;;;;;;;;;1053871;28;1155;-32
2021/11/23 03:24:05;;;;;;;;;;;;;;;;;;1054368;28;1162;-39
2021/11/23 03:24:36;;;;;;;;;;;;;;;;;;1053215;28;1113;-33
2021/11/23 03:25:07;;;;;;;;;;;;;;;;;;1053579;28;1107;-35
2021/11/23 03:25:38;;;;;;;;;;;;;;;;;;1053404;28;1079;-35
2021/11/23 03:26:08;;;;;;;;;;;;;;;;;;1053578;28;794;-33
2021/11/23 03:26:39;;;;;;;;;;;;;;;;;;1054265;28;924;-39
2021/11/23 03:27:11;;;;;;;;;;;;;;;;;;1054115;28;1178;-39
2021/11/23 03:27:41;;;;;;;;;;;;;;;;;;1040589;28;1018;-37
2021/11/23 03:28:12;;;;;;;;;;;;;;;;;;1040676;28;1489;-33
2021/11/23 03:28:42;;;;;;;;;;;;;;;;;;1040480;28;1961;-35
2021/11/23 03:29:12;;;;;;;;;;;;;;;;;;1041113;28;1094;-31
2021/11/23 03:29:43;;;;;;;;;;;;;;;;;;1044902;28;1069;-33
2021/11/23 03:30:16;;;;;;;;;;;;;;;;;;1044876;28;927;-35
2021/11/23 03:30:46;;;;;;;;;;;;;;;;;;1045152;28;1274;-31
2021/11/23 03:31:17;;;;;;;;;;;;;;;;;;1045804;28;898;-32
2021/11/23 03:31:47;;;;;;;;;;;;;;;;;;1053801;28;790;-32
2021/11/23 03:32:18;;;;;;;;;;;;;;;;;;1054269;28;868;-35
2021/11/23 03:32:48;;;;;;;;;;;;;;;;;;1053860;28;774;-36
2021/11/23 03:33:19;;;;;;;;;;;;;;;;;;1054061;28;1045;-31
2021/11/23 03:33:50;;;;;;;;;;;;;;;;;;1053893;28;1082;-34
2021/11/23 03:34:20;;;;;;;;;;;;;;;;;;1054096;28;905;-34
2021/11/23 03:34:51;;;;;;;;;;;;;;;;;;1054468;28;940;-35
2021/11/23 03:35:22;;;;;;;;;;;;;;;;;;1053893;28;911;-33
2021/11/23 03:35:55;;;;;;;;;;;;;;;;;;1044975;28;991;-33
2021/11/23 03:36:25;;;;;;;;;;;;;;;;;;1045233;28;901;-31
2021/11/23 03:36:56;;;;;;;;;;;;;;;;;;1045198;28;850;-34